PAOM Airport Information

Runway Information
Runway 03 Length 5576 ft width 150 ft
Elevation 12 ft Threshold 0 ft Heading 42
Runway 21 Length 5576 ft Width 150 ft
Elevation 36 ft Threshold 0 ft Heading 222
Runway 10 Length 6001 ft width 150 ft
Elevation 16 ft Threshold 0 ft Heading 110
Runway 28 Length 6001 ft Width 150 ft
Elevation 21 ft Threshold 0 ft Heading 290
Airport Frequencies
Type ASOS Name ASOS Frequency 119.925 MHZ
Type ATIS Name ATIS Frequency 119.925 MHZ
Type CNTR Name ANCHORAGE Frequency 133.3 MHZ
Type CTAF Name CTAF Frequency 123.6 MHZ
Type FSS Name RDO Frequency 122.45 MHZ
Type MISC Name TWEB Frequency 115 MHZ
Airport Navaids
Type NDB Name Fort Davis Frequency 529 KHZ
Type VOR-DME Name Nome Frequency 115000 KHZ
Type NDB-DME Name Gold Frequency 208 KHZ
Airport Weather Information & NOTAM
ADDS - METARS form results

(1448 UTC 20 April 2018)
Data provider http://aviationweather.gov/adds/metars/
 
METAR text: PAOM 201353Z AUTO 01021KT 10SM CLR M03/M11 A2962 RMK AO2 SLP032 T10281106 TSNO
Conditions at: PAOM (NOME , AK, US) observed 1353 UTC 20 April 2018
Temperature: -2.8°C (27°F)
Dewpoint: -10.6°C (13°F) [RH = 55%]
Pressure (altimeter): 29.62 inches Hg (1003.1 mb)
[Sea-level pressure: 1003.2 mb]
Winds: from the N (10 degrees) at 24 MPH (21 knots; 10.9 m/s)
Visibility: 10 or more miles (16+ km)
Ceiling: at least 12,000 feet AGL
Clouds: sky clear below 12,000 feet AGL
Weather: automated observation with no human augmentation;
there may or may not be significant weather present at this time

Forecast for: PAOM (NOME , AK, US)
Text: PAOM 201138Z 2012/2112 36012KT P6SM SKC
Forecast period: 1200 to 2000 UTC 20 April 2018
Forecast type: FROM: standard forecast or significant change
Winds: from the N (360 degrees) at 14 MPH (12 knots; 6.2 m/s)
Visibility: 6 or more miles (10+ km)
Clouds: clear skies
Weather: no significant weather forecast for this period
Forecast for: PAOM (NOME , AK, US)
Text: PAOM 201138Z 2012/2112 36012KT P6SM SKC
Forecast period: 1200 to 2000 UTC 20 April 2018
Forecast type: FROM: standard forecast or significant change
Winds: from the N (360 degrees) at 14 MPH (12 knots; 6.2 m/s)
Visibility: 6 or more miles (10+ km)
Clouds: clear skies
Weather: no significant weather forecast for this period
Forecast for: PAOM (NOME , AK, US)
Text: PAOM 201138Z 2012/2112 36012KT P6SM SKC
Forecast period: 2000 UTC 20 April 2018 to 0900 UTC 21 April 2018
Forecast type: FROM: standard forecast or significant change
Winds: from the NNE (20 degrees) at 17 MPH (15 knots; 7.8 m/s)
gusting to 25 MPH (22 knots; 11.4 m/s)
Visibility: 6 or more miles (10+ km)
Clouds: few clouds at 10000 feet AGL
scattered clouds at 20000 feet AGL
Weather: no significant weather forecast for this period
Forecast for: PAOM (NOME , AK, US)
Text: PAOM 201138Z 2012/2112 36012KT P6SM SKC
Forecast period: 2000 UTC 20 April 2018 to 0900 UTC 21 April 2018
Forecast type: FROM: standard forecast or significant change
Winds: from the NNE (20 degrees) at 17 MPH (15 knots; 7.8 m/s)
gusting to 25 MPH (22 knots; 11.4 m/s)
Visibility: 6 or more miles (10+ km)
Clouds: few clouds at 10000 feet AGL
scattered clouds at 20000 feet AGL
Weather: no significant weather forecast for this period
Forecast for: PAOM (NOME , AK, US)
Text: PAOM 201138Z 2012/2112 36012KT P6SM SKC
Forecast period: 0900 to 1200 UTC 21 April 2018
Forecast type: FROM: standard forecast or significant change
Winds: from the NE (40 degrees) at 15 MPH (13 knots; 6.8 m/s)
Visibility: 6 or more miles (10+ km)
Clouds: clear skies
Weather: no significant weather forecast for this period
Forecast for: PAOM (NOME , AK, US)
Text: PAOM 201138Z 2012/2112 36012KT P6SM SKC
Forecast period: 0900 to 1200 UTC 21 April 2018
Forecast type: FROM: standard forecast or significant change
Winds: from the NE (40 degrees) at 15 MPH (13 knots; 6.8 m/s)
Visibility: 6 or more miles (10+ km)
Clouds: clear skies
Weather: no significant weather forecast for this period